Time;durP1;ratioP1;P1;durP2;ratioP2;P2;SDS_P1;SDS_P2;PMS_P1;PMS_P2;Temp;Humidity;BMP_temperature;BMP_pressure;BME280_temperature;BME280_humidity;BME280_pressure;Samples;Min_cycle;Max_cycle;Signal;HPM_P1;HPM_P2
2022/08/29 00:00:49;;;;;;;4.87;2.93;;;;;;;;;;5051633;28;20258;-79
2022/08/29 00:03:14;;;;;;;5.72;2.85;;;;;;;;;;5051937;28;20257;-77
2022/08/29 00:05:39;;;;;;;8.70;3.20;;;;;;;;;;5051798;28;20044;-76
2022/08/29 00:08:05;;;;;;;7.13;3.23;;;;;;;;;;5052338;28;20276;-77
2022/08/29 00:10:32;;;;;;;10.45;3.22;;;;;;;;;;5051734;28;20682;-77
2022/08/29 00:12:57;;;;;;;9.27;3.47;;;;;;;;;;5051969;28;20494;-77
2022/08/29 00:15:22;;;;;;;8.52;3.15;;;;;;;;;;5051830;28;20476;-76
2022/08/29 00:17:48;;;;;;;10.90;2.92;;;;;;;;;;5052180;28;20025;-76
2022/08/29 00:20:17;;;;;;;6.85;3.08;;;;;;;;;;5052100;28;20075;-78
2022/08/29 00:22:43;;;;;;;8.25;2.90;;;;;;;;;;5050217;28;20108;-78
2022/08/29 00:25:11;;;;;;;11.13;3.17;;;;;;;;;;5051422;28;20178;-76
2022/08/29 00:27:36;;;;;;;9.43;3.40;;;;;;;;;;5051782;28;20025;-77
2022/08/29 00:30:04;;;;;;;8.38;3.67;;;;;;;;;;5051855;28;20497;-77
2022/08/29 00:32:33;;;;;;;13.95;3.58;;;;;;;;;;5051289;28;20044;-77
2022/08/29 00:35:04;;;;;;;10.45;2.97;;;;;;;;;;5050907;28;20017;-76
2022/08/29 00:37:30;;;;;;;11.98;3.38;;;;;;;;;;5054335;28;20024;-76
2022/08/29 00:39:55;;;;;;;11.27;3.05;;;;;;;;;;5054146;28;20035;-76
2022/08/29 00:42:20;;;;;;;10.48;3.35;;;;;;;;;;5053725;28;20029;-76
2022/08/29 00:44:45;;;;;;;10.10;3.40;;;;;;;;;;5055158;28;20129;-77
2022/08/29 00:47:13;;;;;;;7.13;3.57;;;;;;;;;;5054896;28;20258;-76
2022/08/29 00:49:43;;;;;;;8.88;3.28;;;;;;;;;;5054857;28;20254;-76
2022/08/29 00:52:18;;;;;;;9.27;3.30;;;;;;;;;;5054806;28;20151;-76
2022/08/29 00:54:48;;;;;;;8.57;3.50;;;;;;;;;;5053385;28;20024;-76
2022/08/29 00:57:14;;;;;;;12.68;3.45;;;;;;;;;;5053479;28;20059;-77
2022/08/29 00:59:40;;;;;;;8.02;3.15;;;;;;;;;;5054675;28;20064;-76
2022/08/29 01:02:07;;;;;;;11.32;3.67;;;;;;;;;;5054615;28;20398;-77
2022/08/29 01:04:33;;;;;;;8.85;3.33;;;;;;;;;;5053177;28;20033;-76
2022/08/29 01:06:59;;;;;;;7.45;3.50;;;;;;;;;;5053476;28;20028;-77
2022/08/29 01:09:25;;;;;;;6.25;3.20;;;;;;;;;;5054642;28;20037;-75
2022/08/29 01:14:36;;;;;;;7.20;3.08;;;;;;;;;;5054447;28;20555;-77
2022/08/29 01:17:03;;;;;;;9.18;3.25;;;;;;;;;;5054428;28;20029;-76
2022/08/29 01:19:44;;;;;;;8.10;3.17;;;;;;;;;;5053280;28;20024;-77
2022/08/29 01:22:23;;;;;;;8.57;3.22;;;;;;;;;;5054682;28;20488;-77
2022/08/29 01:24:51;;;;;;;8.13;3.38;;;;;;;;;;5054646;28;20029;-76
2022/08/29 01:27:20;;;;;;;10.93;3.38;;;;;;;;;;5054410;28;20079;-78
2022/08/29 01:29:46;;;;;;;5.53;3.17;;;;;;;;;;5053769;28;20382;-77
2022/08/29 01:32:11;;;;;;;7.85;3.88;;;;;;;;;;5054019;28;20025;-77
2022/08/29 01:34:38;;;;;;;6.93;3.30;;;;;;;;;;5054115;28;20108;-77
2022/08/29 01:37:05;;;;;;;8.77;3.03;;;;;;;;;;5053360;28;20033;-76
2022/08/29 01:39:36;;;;;;;10.05;3.05;;;;;;;;;;5054103;28;20031;-76
2022/08/29 01:42:09;;;;;;;10.27;3.30;;;;;;;;;;5054177;28;20028;-76
2022/08/29 01:44:35;;;;;;;7.70;3.67;;;;;;;;;;5053639;28;20032;-77
2022/08/29 01:47:01;;;;;;;9.43;3.58;;;;;;;;;;5052783;28;20035;-76
2022/08/29 01:49:26;;;;;;;7.45;3.25;;;;;;;;;;5052674;28;20025;-77
2022/08/29 01:51:52;;;;;;;9.43;3.35;;;;;;;;;;5053897;28;20052;-76
2022/08/29 01:54:18;;;;;;;9.13;2.88;;;;;;;;;;5055908;28;20021;-76
2022/08/29 01:56:47;;;;;;;9.50;3.35;;;;;;;;;;5055527;28;20173;-76
2022/08/29 01:59:17;;;;;;;9.95;3.50;;;;;;;;;;5054842;28;20478;-76
2022/08/29 02:01:57;;;;;;;7.32;2.83;;;;;;;;;;5053999;28;20017;-76
2022/08/29 02:04:22;;;;;;;11.52;3.33;;;;;;;;;;5053522;28;20021;-77
2022/08/29 02:06:48;;;;;;;11.52;3.22;;;;;;;;;;5053887;28;20112;-77
2022/08/29 02:09:13;;;;;;;9.00;3.05;;;;;;;;;;5053550;28;20029;-77
2022/08/29 02:11:39;;;;;;;11.15;3.28;;;;;;;;;;5052043;28;20483;-76
2022/08/29 02:14:05;;;;;;;9.00;2.95;;;;;;;;;;5053421;28;20029;-76
2022/08/29 02:16:31;;;;;;;9.00;3.08;;;;;;;;;;5052316;28;20021;-76
2022/08/29 02:18:56;;;;;;;10.13;3.38;;;;;;;;;;5052011;28;20017;-76
2022/08/29 02:21:24;;;;;;;8.50;3.35;;;;;;;;;;5053525;28;20025;-75
2022/08/29 02:23:50;;;;;;;10.55;3.45;;;;;;;;;;5052924;28;20029;-77
2022/08/29 02:26:17;;;;;;;8.88;3.40;;;;;;;;;;5051883;28;20021;-76
2022/08/29 02:28:42;;;;;;;7.72;3.22;;;;;;;;;;5053223;28;20056;-76
2022/08/29 02:31:08;;;;;;;9.07;3.00;;;;;;;;;;5053292;28;20060;-77
2022/08/29 02:33:35;;;;;;;9.57;3.40;;;;;;;;;;5052527;28;20052;-76
2022/08/29 02:36:01;;;;;;;8.88;3.05;;;;;;;;;;5052918;28;20039;-77
2022/08/29 02:38:27;;;;;;;7.25;2.97;;;;;;;;;;5053007;28;20025;-77
2022/08/29 02:40:53;;;;;;;7.65;3.05;;;;;;;;;;5053263;28;20162;-77
2022/08/29 02:43:20;;;;;;;7.95;3.25;;;;;;;;;;5053112;28;20028;-75
2022/08/29 02:45:46;;;;;;;9.32;3.17;;;;;;;;;;5053025;28;20025;-77
2022/08/29 02:48:12;;;;;;;9.75;3.15;;;;;;;;;;5053369;28;20036;-76
2022/08/29 02:51:39;;;;;;;7.13;3.13;;;;;;;;;;5051605;28;20029;-78
2022/08/29 02:54:04;;;;;;;6.60;2.65;;;;;;;;;;5009339;28;20375;-77
2022/08/29 02:56:30;;;;;;;6.70;3.03;;;;;;;;;;5055252;28;20079;-77
2022/08/29 02:58:56;;;;;;;5.17;2.80;;;;;;;;;;5057019;28;20028;-76
2022/08/29 03:01:24;;;;;;;14.27;3.70;;;;;;;;;;5057142;28;20254;-76
2022/08/29 03:03:51;;;;;;;8.32;3.40;;;;;;;;;;5057116;28;20127;-77
2022/08/29 03:06:18;;;;;;;11.75;3.38;;;;;;;;;;5056705;28;20074;-76
2022/08/29 03:08:44;;;;;;;9.43;3.03;;;;;;;;;;5056886;28;20037;-76
2022/08/29 03:11:09;;;;;;;10.45;3.40;;;;;;;;;;5057035;28;20035;-77
2022/08/29 03:13:35;;;;;;;10.90;3.60;;;;;;;;;;5056916;28;20021;-77
2022/08/29 03:16:01;;;;;;;6.65;3.05;;;;;;;;;;5055309;28;20341;-76
2022/08/29 03:18:27;;;;;;;9.35;3.28;;;;;;;;;;5056685;28;20462;-76
2022/08/29 03:20:52;;;;;;;11.43;3.47;;;;;;;;;;5055541;28;20027;-76
2022/08/29 03:23:18;;;;;;;10.07;3.10;;;;;;;;;;5056977;28;20016;-76
2022/08/29 03:25:44;;;;;;;6.82;2.88;;;;;;;;;;5055074;28;20056;-76
2022/08/29 03:28:09;;;;;;;9.13;3.20;;;;;;;;;;5056853;28;20021;-76
2022/08/29 03:30:34;;;;;;;7.85;2.90;;;;;;;;;;5055050;28;20028;-77
2022/08/29 03:33:01;;;;;;;6.90;3.05;;;;;;;;;;5056878;28;20104;-76
2022/08/29 03:35:26;;;;;;;6.75;3.10;;;;;;;;;;5054848;28;20021;-76
2022/08/29 03:37:54;;;;;;;9.07;3.20;;;;;;;;;;5055934;28;20032;-76
2022/08/29 03:40:19;;;;;;;14.32;3.65;;;;;;;;;;5056174;28;20270;-76
2022/08/29 03:42:45;;;;;;;8.75;3.17;;;;;;;;;;5055901;28;20131;-76
2022/08/29 03:45:12;;;;;;;13.70;3.40;;;;;;;;;;5056113;28;20033;-76
2022/08/29 03:47:38;;;;;;;10.90;3.00;;;;;;;;;;5055863;28;20108;-77
2022/08/29 03:50:04;;;;;;;7.90;3.25;;;;;;;;;;5056002;28;20203;-77
2022/08/29 03:52:30;;;;;;;5.82;3.30;;;;;;;;;;5055539;28;20514;-75
2022/08/29 03:54:56;;;;;;;7.95;3.05;;;;;;;;;;5055850;28;20029;-77
2022/08/29 03:57:21;;;;;;;8.25;3.30;;;;;;;;;;5055754;28;20029;-77
2022/08/29 03:59:47;;;;;;;13.02;3.20;;;;;;;;;;5055971;28;20035;-76
2022/08/29 04:02:12;;;;;;;9.90;2.90;;;;;;;;;;5055577;28;20079;-76
2022/08/29 04:07:22;;;;;;;6.95;2.90;;;;;;;;;;5055806;28;20035;-77
2022/08/29 04:09:47;;;;;;;8.27;3.40;;;;;;;;;;5054817;28;20406;-77
2022/08/29 04:12:12;;;;;;;6.00;3.00;;;;;;;;;;5055433;28;20025;-77
2022/08/29 04:14:38;;;;;;;14.82;3.38;;;;;;;;;;5055745;28;20261;-77
2022/08/29 04:17:04;;;;;;;5.05;2.90;;;;;;;;;;5055570;28;20079;-76
2022/08/29 04:19:29;;;;;;;9.73;3.42;;;;;;;;;;5055586;28;20470;-77
2022/08/29 04:21:56;;;;;;;8.77;3.05;;;;;;;;;;5055476;28;20021;-76
2022/08/29 04:24:21;;;;;;;9.95;3.20;;;;;;;;;;5053812;28;20032;-76
2022/08/29 04:26:46;;;;;;;5.85;2.90;;;;;;;;;;5055460;28;20029;-76
2022/08/29 04:29:12;;;;;;;9.57;3.43;;;;;;;;;;5055196;28;20044;-76
2022/08/29 04:31:39;;;;;;;12.77;3.17;;;;;;;;;;5054728;28;20282;-76
2022/08/29 04:34:06;;;;;;;7.55;3.00;;;;;;;;;;5054821;28;20108;-76
2022/08/29 04:36:36;;;;;;;13.95;3.92;;;;;;;;;;5054776;28;20036;-76
2022/08/29 04:39:02;;;;;;;12.32;3.25;;;;;;;;;;5054769;28;20067;-76
2022/08/29 04:41:28;;;;;;;7.35;3.35;;;;;;;;;;5054801;28;20093;-77
2022/08/29 04:43:53;;;;;;;8.07;3.13;;;;;;;;;;5055305;28;20123;-76
2022/08/29 04:46:18;;;;;;;6.20;2.97;;;;;;;;;;5054744;28;20258;-77
2022/08/29 04:48:44;;;;;;;12.00;3.25;;;;;;;;;;5054726;28;20262;-77
2022/08/29 04:51:09;;;;;;;6.82;3.22;;;;;;;;;;5054650;28;20065;-76
2022/08/29 04:53:35;;;;;;;8.73;3.10;;;;;;;;;;5054692;28;20020;-77
2022/08/29 04:56:07;;;;;;;11.63;3.28;;;;;;;;;;5054367;28;20032;-78
2022/08/29 04:58:34;;;;;;;11.10;2.97;;;;;;;;;;5053666;28;20017;-77
2022/08/29 05:00:59;;;;;;;8.15;3.22;;;;;;;;;;5054238;28;20025;-77
2022/08/29 05:03:25;;;;;;;14.52;3.65;;;;;;;;;;5054378;28;20029;-76
2022/08/29 05:06:06;;;;;;;6.82;2.97;;;;;;;;;;5054451;28;20028;-76
2022/08/29 05:08:32;;;;;;;10.70;3.03;;;;;;;;;;5053043;28;20036;-77
2022/08/29 05:10:58;;;;;;;8.05;3.20;;;;;;;;;;5054151;28;20035;-75
2022/08/29 05:13:23;;;;;;;10.88;3.10;;;;;;;;;;5054190;28;20029;-76
2022/08/29 05:15:49;;;;;;;9.70;3.40;;;;;;;;;;5054190;28;20049;-76
2022/08/29 05:18:17;;;;;;;9.27;3.15;;;;;;;;;;5053348;28;20028;-76
2022/08/29 05:20:45;;;;;;;12.73;3.20;;;;;;;;;;5054147;28;20025;-76
2022/08/29 05:23:11;;;;;;;8.30;3.38;;;;;;;;;;5052667;28;20028;-76
2022/08/29 05:25:37;;;;;;;12.45;3.70;;;;;;;;;;5053747;28;20029;-76
2022/08/29 05:28:03;;;;;;;12.70;3.70;;;;;;;;;;5054189;28;20087;-76
2022/08/29 05:30:28;;;;;;;13.60;3.47;;;;;;;;;;5053865;28;20028;-76
2022/08/29 05:32:54;;;;;;;6.55;3.10;;;;;;;;;;5052381;28;20021;-76
2022/08/29 05:35:20;;;;;;;8.20;3.17;;;;;;;;;;5053698;28;20025;-76
2022/08/29 05:37:45;;;;;;;8.23;3.30;;;;;;;;;;5053714;28;20027;-76
2022/08/29 05:40:10;;;;;;;7.25;2.88;;;;;;;;;;5053747;28;20410;-76
2022/08/29 05:42:35;;;;;;;6.57;2.85;;;;;;;;;;5053734;28;20021;-76
2022/08/29 05:45:03;;;;;;;11.37;4.70;;;;;;;;;;5053506;28;20060;-77
2022/08/29 05:47:30;;;;;;;5.57;2.90;;;;;;;;;;5053711;28;20261;-75
2022/08/29 05:49:55;;;;;;;8.05;2.50;;;;;;;;;;5053238;28;20021;-76
2022/08/29 05:52:21;;;;;;;7.60;2.78;;;;;;;;;;5053404;28;20116;-77
2022/08/29 05:54:47;;;;;;;5.25;2.40;;;;;;;;;;5053491;28;20024;-75
2022/08/29 05:57:14;;;;;;;10.18;2.78;;;;;;;;;;5053964;28;20078;-75
2022/08/29 05:59:39;;;;;;;8.63;2.75;;;;;;;;;;5051914;28;20422;-76
2022/08/29 06:02:06;;;;;;;7.93;3.00;;;;;;;;;;5053122;28;20016;-75
2022/08/29 06:04:31;;;;;;;8.90;2.60;;;;;;;;;;5053044;28;20119;-75
2022/08/29 06:06:56;;;;;;;11.02;2.70;;;;;;;;;;5053140;28;20055;-75
2022/08/29 06:09:21;;;;;;;12.23;2.60;;;;;;;;;;5051991;28;20029;-75
2022/08/29 06:11:49;;;;;;;11.10;2.60;;;;;;;;;;5051984;28;20313;-76
2022/08/29 06:14:15;;;;;;;9.10;3.00;;;;;;;;;;5053206;28;20261;-77
2022/08/29 06:16:40;;;;;;;6.45;2.80;;;;;;;;;;5051828;28;20017;-75
2022/08/29 06:19:05;;;;;;;5.25;2.30;;;;;;;;;;5051620;28;20028;-76
2022/08/29 06:21:31;;;;;;;8.43;2.28;;;;;;;;;;5053201;28;20028;-76
2022/08/29 06:23:56;;;;;;;7.28;2.70;;;;;;;;;;5052960;28;20036;-75
2022/08/29 06:26:21;;;;;;;8.35;2.75;;;;;;;;;;5051811;28;20025;-80
2022/08/29 06:28:47;;;;;;;10.68;2.80;;;;;;;;;;5051479;28;20028;-75
2022/08/29 06:31:20;;;;;;;12.20;2.78;;;;;;;;;;5056430;28;20059;-76
2022/08/29 06:33:46;;;;;;;9.35;2.97;;;;;;;;;;5056829;28;20025;-75
2022/08/29 06:36:12;;;;;;;7.35;2.70;;;;;;;;;;5057418;28;20031;-77
2022/08/29 06:38:38;;;;;;;10.73;2.70;;;;;;;;;;5061152;28;20029;-76
2022/08/29 06:41:05;;;;;;;7.05;2.47;;;;;;;;;;5055717;28;20062;-75
2022/08/29 06:43:30;;;;;;;9.18;2.70;;;;;;;;;;5055347;28;20025;-76
2022/08/29 06:45:56;;;;;;;4.60;2.63;;;;;;;;;;5056616;28;20032;-75
2022/08/29 06:48:21;;;;;;;5.07;2.40;;;;;;;;;;5055435;28;20487;-76
2022/08/29 06:50:46;;;;;;;8.57;2.93;;;;;;;;;;5056764;28;20284;-75
2022/08/29 06:53:11;;;;;;;6.80;2.50;;;;;;;;;;5056562;28;20281;-75
2022/08/29 06:55:37;;;;;;;8.37;2.83;;;;;;;;;;5056531;28;20021;-75
2022/08/29 06:58:04;;;;;;;10.05;2.83;;;;;;;;;;5056361;28;20337;-75
2022/08/29 07:00:29;;;;;;;8.52;3.08;;;;;;;;;;5056621;28;20033;-75
2022/08/29 07:02:54;;;;;;;6.63;3.05;;;;;;;;;;5056317;28;20017;-76
2022/08/29 07:05:21;;;;;;;8.57;2.83;;;;;;;;;;5056227;28;20039;-76
2022/08/29 07:07:47;;;;;;;9.30;3.05;;;;;;;;;;5054980;28;20048;-75
2022/08/29 07:10:13;;;;;;;10.48;2.60;;;;;;;;;;5055079;28;20494;-76
2022/08/29 07:12:38;;;;;;;9.23;2.97;;;;;;;;;;5054864;28;20017;-76
2022/08/29 07:15:04;;;;;;;9.95;2.88;;;;;;;;;;5056137;28;20031;-76
2022/08/29 07:17:30;;;;;;;8.63;3.25;;;;;;;;;;5056254;28;20035;-75
2022/08/29 07:19:55;;;;;;;8.65;2.60;;;;;;;;;;5054670;28;20385;-75
2022/08/29 07:22:21;;;;;;;7.70;3.03;;;;;;;;;;5056113;28;20013;-75
2022/08/29 07:24:46;;;;;;;11.68;3.10;;;;;;;;;;5054730;28;20254;-75
2022/08/29 07:27:12;;;;;;;7.47;3.13;;;;;;;;;;5055848;28;20025;-76
2022/08/29 07:29:38;;;;;;;7.10;2.63;;;;;;;;;;5055995;28;20273;-75
2022/08/29 07:32:04;;;;;;;11.80;2.80;;;;;;;;;;5055782;28;20398;-75
2022/08/29 07:34:29;;;;;;;7.43;2.70;;;;;;;;;;5054439;28;20462;-75
2022/08/29 07:36:54;;;;;;;9.50;3.00;;;;;;;;;;5054521;28;20056;-75
2022/08/29 07:39:21;;;;;;;9.13;2.80;;;;;;;;;;5054379;28;20029;-75
2022/08/29 07:41:47;;;;;;;8.93;3.20;;;;;;;;;;5055076;28;20254;-75
2022/08/29 07:44:14;;;;;;;11.32;3.00;;;;;;;;;;5055749;28;20021;-75
2022/08/29 07:46:39;;;;;;;7.35;2.58;;;;;;;;;;5055524;28;20035;-74
2022/08/29 07:49:06;;;;;;;6.75;2.97;;;;;;;;;;5054208;28;20021;-75
2022/08/29 07:51:31;;;;;;;8.30;2.63;;;;;;;;;;5055468;28;20427;-75
2022/08/29 07:53:57;;;;;;;6.47;2.70;;;;;;;;;;5055695;28;20108;-75
2022/08/29 07:56:28;;;;;;;6.03;2.50;;;;;;;;;;5055270;28;20028;-75
2022/08/29 07:58:55;;;;;;;10.43;2.53;;;;;;;;;;5054103;28;20032;-75
2022/08/29 08:01:21;;;;;;;7.55;2.70;;;;;;;;;;5055292;28;20079;-75
2022/08/29 08:03:47;;;;;;;5.70;2.22;;;;;;;;;;5055110;28;20021;-76
2022/08/29 08:06:12;;;;;;;9.80;2.80;;;;;;;;;;5054868;28;20021;-76
2022/08/29 08:08:38;;;;;;;9.07;2.42;;;;;;;;;;5055601;28;20029;-76
2022/08/29 08:11:05;;;;;;;8.10;2.97;;;;;;;;;;5055269;28;20025;-76
2022/08/29 08:13:31;;;;;;;8.07;2.28;;;;;;;;;;5055129;28;20093;-76
2022/08/29 08:15:56;;;;;;;12.75;2.90;;;;;;;;;;5054994;28;20057;-76
2022/08/29 08:18:22;;;;;;;9.10;2.83;;;;;;;;;;5054903;28;20392;-74
2022/08/29 08:20:47;;;;;;;7.13;2.90;;;;;;;;;;5054893;28;20020;-75
2022/08/29 08:23:16;;;;;;;7.80;2.57;;;;;;;;;;5054940;28;20036;-75
2022/08/29 08:25:43;;;;;;;8.60;2.67;;;;;;;;;;5054645;28;20737;-76
2022/08/29 08:28:09;;;;;;;12.85;2.47;;;;;;;;;;5055142;28;20103;-75
2022/08/29 08:30:34;;;;;;;10.30;2.63;;;;;;;;;;5054655;28;20399;-77
2022/08/29 08:32:59;;;;;;;8.20;2.45;;;;;;;;;;5053481;28;20021;-76
2022/08/29 08:35:25;;;;;;;6.05;2.80;;;;;;;;;;5055471;28;20029;-76
2022/08/29 08:37:51;;;;;;;5.88;2.50;;;;;;;;;;5056046;28;20013;-76
2022/08/29 08:40:22;;;;;;;6.80;2.47;;;;;;;;;;5056337;28;20017;-74
2022/08/29 08:42:49;;;;;;;10.85;3.00;;;;;;;;;;5055858;28;20017;-75
2022/08/29 08:45:25;;;;;;;11.68;3.05;;;;;;;;;;5054494;28;20028;-75
2022/08/29 08:47:55;;;;;;;8.70;3.05;;;;;;;;;;5054594;28;20024;-75
2022/08/29 08:50:32;;;;;;;10.85;2.65;;;;;;;;;;5054085;28;20017;-75
2022/08/29 08:53:04;;;;;;;6.57;2.70;;;;;;;;;;5054445;28;20021;-75
2022/08/29 08:55:40;;;;;;;7.28;2.78;;;;;;;;;;5054481;28;20082;-75
2022/08/29 08:58:13;;;;;;;15.10;3.20;;;;;;;;;;5054723;28;20079;-75
2022/08/29 09:00:43;;;;;;;7.05;2.78;;;;;;;;;;5053099;28;20036;-75
2022/08/29 09:03:15;;;;;;;6.72;2.80;;;;;;;;;;5053116;28;20386;-75
2022/08/29 09:06:10;;;;;;;5.93;2.70;;;;;;;;;;5054259;28;20056;-75
2022/08/29 09:08:56;;;;;;;7.00;2.78;;;;;;;;;;5052896;28;20021;-75
2022/08/29 09:11:33;;;;;;;5.55;2.10;;;;;;;;;;5054367;28;20025;-78
2022/08/29 09:14:11;;;;;;;9.85;2.80;;;;;;;;;;5054982;28;20086;-76
2022/08/29 09:16:45;;;;;;;8.07;2.55;;;;;;;;;;5052673;28;20028;-77
2022/08/29 09:19:20;;;;;;;5.70;2.67;;;;;;;;;;5052647;28;20456;-76
2022/08/29 09:21:56;;;;;;;8.25;2.70;;;;;;;;;;5052341;28;20056;-76
2022/08/29 09:24:48;;;;;;;8.45;2.85;;;;;;;;;;5054052;28;20028;-76
2022/08/29 09:27:22;;;;;;;8.63;2.90;;;;;;;;;;5053961;28;20017;-74
2022/08/29 09:29:54;;;;;;;8.95;2.75;;;;;;;;;;5053864;28;20470;-75
2022/08/29 09:32:19;;;;;;;7.68;2.65;;;;;;;;;;5053693;28;20031;-75
2022/08/29 09:34:47;;;;;;;7.43;2.47;;;;;;;;;;5053709;28;20096;-75
2022/08/29 09:37:33;;;;;;;5.68;2.75;;;;;;;;;;5053592;28;20513;-75
2022/08/29 09:40:09;;;;;;;9.40;2.85;;;;;;;;;;5052342;28;20402;-76
2022/08/29 09:42:38;;;;;;;10.43;2.70;;;;;;;;;;5052123;28;20025;-75
2022/08/29 09:45:16;;;;;;;7.50;2.70;;;;;;;;;;5051916;28;20036;-75
2022/08/29 09:47:41;;;;;;;6.30;2.40;;;;;;;;;;5052360;28;20029;-75
2022/08/29 09:50:25;;;;;;;10.68;2.70;;;;;;;;;;5054313;28;20017;-75
2022/08/29 09:53:00;;;;;;;6.75;2.80;;;;;;;;;;5053469;28;20024;-76
2022/08/29 09:55:35;;;;;;;6.47;2.70;;;;;;;;;;5051912;28;20024;-76
2022/08/29 09:58:08;;;;;;;5.72;2.72;;;;;;;;;;5052014;28;20025;-76
2022/08/29 10:00:42;;;;;;;6.82;2.40;;;;;;;;;;5053461;28;20021;-76
2022/08/29 10:03:17;;;;;;;;;;;;;;;;;;5052337;28;20044;-75
2022/08/29 10:05:44;;;;;;;8.48;2.47;;;;;;;;;;5052517;28;19936;-76
2022/08/29 10:08:26;;;;;;;7.45;2.80;;;;;;;;;;5052953;28;20447;-75
2022/08/29 10:10:55;;;;;;;8.40;2.75;;;;;;;;;;5052792;28;20025;-74
2022/08/29 10:13:33;;;;;;;8.70;2.67;;;;;;;;;;5052859;28;20040;-75
2022/08/29 10:16:21;;;;;;;7.10;2.35;;;;;;;;;;5053121;28;20040;-75
2022/08/29 10:18:50;;;;;;;7.35;2.80;;;;;;;;;;5053270;28;20028;-74
2022/08/29 10:21:28;;;;;;;8.45;2.80;;;;;;;;;;5051655;28;20017;-75
2022/08/29 10:24:18;;;;;;;10.45;2.50;;;;;;;;;;5051707;28;20032;-75
2022/08/29 10:27:08;;;;;;;7.20;2.38;;;;;;;;;;5053020;28;20064;-75
2022/08/29 10:29:52;;;;;;;7.35;2.53;;;;;;;;;;5053177;28;20363;-75
2022/08/29 10:33:03;;;;;;;5.82;2.50;;;;;;;;;;5053114;28;20398;-76
2022/08/29 10:35:48;;;;;;;8.02;2.40;;;;;;;;;;5046123;28;20124;-75
2022/08/29 10:38:43;;;;;;;5.45;2.38;;;;;;;;;;5053121;28;20032;-75
2022/08/29 10:41:17;;;;;;;6.13;2.53;;;;;;;;;;5051628;28;20079;-74
2022/08/29 10:43:55;;;;;;;8.23;2.85;;;;;;;;;;5052953;28;20385;-74
2022/08/29 10:46:31;;;;;;;11.80;2.80;;;;;;;;;;5052422;28;20040;-74
2022/08/29 10:49:09;;;;;;;7.68;2.55;;;;;;;;;;5052944;28;20025;-75
2022/08/29 10:51:45;;;;;;;10.38;2.67;;;;;;;;;;5052792;28;20040;-74
2022/08/29 10:54:32;;;;;;;8.80;2.47;;;;;;;;;;5051226;28;20025;-75
2022/08/29 10:56:58;;;;;;;7.35;2.72;;;;;;;;;;5052780;28;20025;-75
2022/08/29 11:00:03;;;;;;;6.13;2.70;;;;;;;;;;5051217;28;20036;-75
2022/08/29 11:02:49;;;;;;;7.55;2.33;;;;;;;;;;5052674;28;20032;-76
2022/08/29 11:05:24;;;;;;;7.10;2.60;;;;;;;;;;5052477;28;20490;-76
2022/08/29 11:07:59;;;;;;;6.43;2.50;;;;;;;;;;5052829;28;20433;-75
2022/08/29 11:10:39;;;;;;;6.90;2.90;;;;;;;;;;5051048;28;20032;-75
2022/08/29 11:13:38;;;;;;;8.10;2.85;;;;;;;;;;5052875;28;20113;-76
2022/08/29 11:16:35;;;;;;;8.45;2.67;;;;;;;;;;5051849;28;20029;-76
2022/08/29 11:19:27;;;;;;;7.40;2.22;;;;;;;;;;5055643;28;20042;-75
2022/08/29 11:22:03;;;;;;;8.57;2.30;;;;;;;;;;5056377;28;20049;-75
2022/08/29 11:24:33;;;;;;;8.10;2.65;;;;;;;;;;5056524;28;20108;-75
2022/08/29 11:27:27;;;;;;;9.73;2.88;;;;;;;;;;5056163;28;20390;-75
2022/08/29 11:29:58;;;;;;;9.70;2.50;;;;;;;;;;5054982;28;20035;-77
2022/08/29 11:32:42;;;;;;;6.95;2.40;;;;;;;;;;5056524;28;20028;-76
2022/08/29 11:35:20;;;;;;;8.50;2.00;;;;;;;;;;5056164;28;20094;-75
2022/08/29 11:38:16;;;;;;;7.38;2.38;;;;;;;;;;5056122;28;20442;-75
2022/08/29 11:41:05;;;;;;;5.82;2.40;;;;;;;;;;5054437;28;20040;-76
2022/08/29 11:43:38;;;;;;;5.20;2.00;;;;;;;;;;5056365;28;20021;-76
2022/08/29 11:46:06;;;;;;;8.75;2.90;;;;;;;;;;5055740;28;20029;-76
2022/08/29 11:48:37;;;;;;;6.90;2.10;;;;;;;;;;5055498;28;20024;-75
2022/08/29 11:51:26;;;;;;;7.40;2.35;;;;;;;;;;5055921;28;20474;-75
2022/08/29 11:53:51;;;;;;;4.93;1.83;;;;;;;;;;5055813;28;20032;-76
2022/08/29 11:56:26;;;;;;;5.93;2.03;;;;;;;;;;5054427;28;20505;-75
2022/08/29 11:58:54;;;;;;;4.65;1.80;;;;;;;;;;5054188;28;20482;-75
2022/08/29 12:01:35;;;;;;;4.60;1.90;;;;;;;;;;5055494;28;20061;-76
2022/08/29 12:04:06;;;;;;;9.52;1.98;;;;;;;;;;5055340;28;20032;-77
2022/08/29 12:06:37;;;;;;;3.70;1.63;;;;;;;;;;5054020;28;20041;-76
2022/08/29 12:09:11;;;;;;;4.97;2.00;;;;;;;;;;5054017;28;20401;-76
2022/08/29 12:12:02;;;;;;;5.07;1.80;;;;;;;;;;5055278;28;20021;-75
2022/08/29 12:14:42;;;;;;;4.35;1.70;;;;;;;;;;5055238;28;20072;-75
2022/08/29 12:17:29;;;;;;;4.13;1.67;;;;;;;;;;5055232;28;20032;-76
2022/08/29 12:19:54;;;;;;;4.25;1.92;;;;;;;;;;5054352;28;20025;-76
2022/08/29 12:22:56;;;;;;;6.20;1.90;;;;;;;;;;5054612;28;20374;-76
2022/08/29 12:25:46;;;;;;;4.75;1.73;;;;;;;;;;5053935;28;20056;-76
2022/08/29 12:28:14;;;;;;;4.30;2.10;;;;;;;;;;5054887;28;20024;-75
2022/08/29 12:30:44;;;;;;;5.40;2.20;;;;;;;;;;5055200;28;20513;-75
2022/08/29 12:34:01;;;;;;;4.32;1.85;;;;;;;;;;5054916;28;20032;-75
2022/08/29 12:37:00;;;;;;;7.00;1.98;;;;;;;;;;5055048;28;20028;-76
2022/08/29 12:39:47;;;;;;;5.93;1.90;;;;;;;;;;5054861;28;20029;-75
2022/08/29 12:42:36;;;;;;;5.55;1.90;;;;;;;;;;5055043;28;20107;-75
2022/08/29 12:45:23;;;;;;;5.90;2.10;;;;;;;;;;5054728;28;20027;-75
2022/08/29 12:48:04;;;;;;;4.00;1.85;;;;;;;;;;5053292;28;20029;-75
2022/08/29 12:50:35;;;;;;;3.97;1.95;;;;;;;;;;5054890;28;20055;-76
2022/08/29 12:53:22;;;;;;;9.65;1.95;;;;;;;;;;5054953;28;20025;-75
2022/08/29 12:55:51;;;;;;;6.43;2.38;;;;;;;;;;5054721;28;20545;-76
2022/08/29 12:58:36;;;;;;;4.28;1.88;;;;;;;;;;5054596;28;20119;-76
2022/08/29 13:01:08;;;;;;;9.18;2.38;;;;;;;;;;5054594;28;20021;-75
2022/08/29 13:03:35;;;;;;;4.45;1.90;;;;;;;;;;5053494;28;20140;-75
2022/08/29 13:06:12;;;;;;;10.13;2.25;;;;;;;;;;5052833;28;20033;-76
2022/08/29 13:08:38;;;;;;;6.40;2.20;;;;;;;;;;5052918;28;20021;-75
2022/08/29 13:11:11;;;;;;;4.82;1.65;;;;;;;;;;5054574;28;20399;-76
2022/08/29 13:13:37;;;;;;;4.82;1.75;;;;;;;;;;5054570;28;20025;-77
2022/08/29 13:16:05;;;;;;;4.00;2.08;;;;;;;;;;5054180;28;20098;-76
2022/08/29 13:18:31;;;;;;;8.27;2.05;;;;;;;;;;5054233;28;20104;-76
2022/08/29 13:21:32;;;;;;;4.82;1.75;;;;;;;;;;5052806;28;20063;-76
2022/08/29 13:24:01;;;;;;;7.38;1.80;;;;;;;;;;5053660;28;20044;-75
2022/08/29 13:26:31;;;;;;;4.75;2.10;;;;;;;;;;5053675;28;20028;-75
2022/08/29 13:28:57;;;;;;;6.13;2.20;;;;;;;;;;5054091;28;20437;-78
2022/08/29 13:31:36;;;;;;;5.82;2.00;;;;;;;;;;5054407;28;20032;-76
2022/08/29 13:34:27;;;;;;;3.53;1.63;;;;;;;;;;5052639;28;20040;-76
2022/08/29 13:36:59;;;;;;;5.75;1.85;;;;;;;;;;5051720;28;20044;-76
2022/08/29 13:39:32;;;;;;;4.00;2.03;;;;;;;;;;5053105;28;20048;-76
2022/08/29 13:42:00;;;;;;;5.45;2.35;;;;;;;;;;5054051;28;20081;-76
2022/08/29 13:44:35;;;;;;;5.20;2.40;;;;;;;;;;5052534;28;20032;-76
2022/08/29 13:47:10;;;;;;;6.30;1.70;;;;;;;;;;5053599;28;20024;-76
2022/08/29 13:49:36;;;;;;;5.53;2.00;;;;;;;;;;5053965;28;20021;-75
2022/08/29 13:52:01;;;;;;;5.32;1.80;;;;;;;;;;5053682;28;20032;-75
2022/08/29 13:54:32;;;;;;;4.10;1.63;;;;;;;;;;5053325;28;20040;-75
2022/08/29 13:56:58;;;;;;;7.07;2.00;;;;;;;;;;5053637;28;20529;-76
2022/08/29 13:59:26;;;;;;;4.93;2.00;;;;;;;;;;5053974;28;20402;-76
2022/08/29 14:01:53;;;;;;;7.15;2.10;;;;;;;;;;5053497;28;20021;-76
2022/08/29 14:04:19;;;;;;;5.40;1.80;;;;;;;;;;5053030;28;20079;-75
2022/08/29 14:06:44;;;;;;;5.18;2.15;;;;;;;;;;5051939;28;20405;-75
2022/08/29 14:09:19;;;;;;;5.68;2.15;;;;;;;;;;5053689;28;20063;-76
2022/08/29 14:11:45;;;;;;;4.80;1.85;;;;;;;;;;5053276;28;20115;-75
2022/08/29 14:14:10;;;;;;;3.95;1.98;;;;;;;;;;5052107;28;20478;-75
2022/08/29 14:16:35;;;;;;;6.03;2.00;;;;;;;;;;5053532;28;20079;-76
2022/08/29 14:19:01;;;;;;;6.32;1.90;;;;;;;;;;5053361;28;20379;-76
2022/08/29 14:21:26;;;;;;;4.38;1.60;;;;;;;;;;5053101;28;20017;-77
2022/08/29 14:23:52;;;;;;;5.13;1.90;;;;;;;;;;5053231;28;20020;-76
2022/08/29 14:26:18;;;;;;;5.15;1.98;;;;;;;;;;5053742;28;20388;-76
2022/08/29 14:28:44;;;;;;;3.92;1.52;;;;;;;;;;5053592;28;20549;-77
2022/08/29 14:31:09;;;;;;;4.07;1.85;;;;;;;;;;5053177;28;20075;-77
2022/08/29 14:33:34;;;;;;;3.57;1.80;;;;;;;;;;5052954;28;20029;-76
2022/08/29 14:35:59;;;;;;;3.33;1.70;;;;;;;;;;5053515;28;20747;-76
2022/08/29 14:38:25;;;;;;;7.27;1.60;;;;;;;;;;5053095;28;20111;-76
2022/08/29 14:40:50;;;;;;;4.43;1.80;;;;;;;;;;5053490;28;20308;-76
2022/08/29 14:43:15;;;;;;;4.35;1.85;;;;;;;;;;5051758;28;20246;-75
2022/08/29 14:45:40;;;;;;;7.20;1.80;;;;;;;;;;5053084;28;20029;-76
2022/08/29 14:48:05;;;;;;;4.53;2.10;;;;;;;;;;5052881;28;20778;-77
2022/08/29 14:50:31;;;;;;;3.13;1.70;;;;;;;;;;5053648;28;20647;-75
2022/08/29 14:52:56;;;;;;;3.88;1.83;;;;;;;;;;5055886;28;20300;-76
2022/08/29 14:55:22;;;;;;;7.03;1.92;;;;;;;;;;5056526;28;20457;-75
2022/08/29 14:57:51;;;;;;;2.78;1.70;;;;;;;;;;5056998;28;20028;-75
2022/08/29 15:00:23;;;;;;;3.38;1.80;;;;;;;;;;5056997;28;20078;-75
2022/08/29 15:02:49;;;;;;;4.15;1.83;;;;;;;;;;5056727;28;20021;-75
2022/08/29 15:05:14;;;;;;;7.20;1.92;;;;;;;;;;5055438;28;20174;-75